Saturday, December 15, 2018, 9:32 AM EST
Back to Local

KBFD, Bradford Regional Airport

Location: Cyclone, PA, United States Lat: 41.8
Local Time: 9:32 AM EST (14:32 GMT) Lon: -78.633
Time Zone: US/Eastern Elev: 2142 ft

Show me the last for .
Show Decoded

2018-12-15 09:13 METAR KBFD 151413Z AUTO 05007KT 9SM SCT007 04/03 A3015 RMK AO2 T00390028 =
2018-12-15 08:53 METAR KBFD 151353Z AUTO 04007KT 9SM CLR 04/03 A3015 RMK AO2 SLP221 T00390028 =
2018-12-15 07:53 METAR KBFD 151253Z AUTO 04003KT 5SM BR SCT029 02/02 A3013 RMK AO2 SLP216
                 T00220017 =
2018-12-15 06:53 METAR KBFD 151153Z AUTO 00000KT 3SM BR OVC027 02/01 A3014 RMK AO2 SLP222
                 T00170011 10028 20011 53003 =
2018-12-15 06:05 METAR KBFD 151105Z AUTO 32003KT 4SM BR FEW003 OVC027 02/02 A3014 RMK AO2
                 T00170017 =
2018-12-15 05:53 METAR KBFD 151053Z AUTO 00000KT 2 1/2SM BR FEW003 BKN027 01/01 A3013 RMK AO2
                 SLP219 T00110011 =
2018-12-15 05:46 METAR KBFD 151046Z AUTO 35004KT 4SM BR SCT003 BKN028 02/01 A3013 RMK AO2
                 T00170011 =
2018-12-15 05:38 METAR KBFD 151038Z AUTO 35003KT 4SM BR SCT003 01/01 A3013 RMK AO2 T00110011 =
2018-12-15 05:27 METAR KBFD 151027Z AUTO 00000KT 4SM BR BKN003 01/01 A3013 RMK AO2 T00110011 =
2018-12-15 05:20 METAR KBFD 151020Z AUTO 35004KT 2 1/2SM BR BKN003 02/02 A3013 RMK AO2 T00170017
                 =
2018-12-15 05:08 METAR KBFD 151008Z AUTO 00000KT 1 3/4SM BR SCT003 BKN030 02/02 A3013 RMK AO2
                 T00170017 =
2018-12-15 04:58 METAR KBFD 150958Z AUTO 00000KT 2 1/2SM BR SCT004 SCT030 02/02 A3014 RMK AO2
                 T00170017 =
2018-12-15 04:53 METAR KBFD 150953Z AUTO 00000KT 3SM BR FEW030 02/02 A3014 RMK AO2 SLP221
                 T00170017 =
2018-12-15 04:36 METAR KBFD 150936Z AUTO 00000KT 3SM BR CLR 01/01 A3015 RMK AO2 T00110006 =
2018-12-15 04:30 METAR KBFD 150930Z AUTO 35003KT 1 3/4SM BR CLR 01/01 A3015 RMK AO2 T00110006 =
2018-12-15 03:53 METAR KBFD 150853Z AUTO 00000KT 2 1/2SM BR SCT003 01/01 A3013 RMK AO2 SLP217
                 T00110011 53002 =
2018-12-15 03:50 METAR KBFD 150850Z AUTO 00000KT 2 1/2SM BR BKN003 02/02 A3014 RMK AO2 =
2018-12-15 03:00 METAR KBFD 150800Z AUTO 15005KT 4SM BR BKN003 02/02 A3012 RMK AO2 T00220022 =
2018-12-15 02:53 METAR KBFD 150753Z AUTO 14004KT 3SM BR SCT003 02/02 A3011 RMK AO2 SLP206
                 T00220017 =
2018-12-15 02:46 METAR KBFD 150746Z AUTO 13004KT 3SM BR FEW003 01/01 A3010 RMK AO2 T00110006 =
2018-12-15 02:39 METAR KBFD 150739Z AUTO 12004KT 2 1/2SM BR CLR 02/02 A3011 RMK AO2 PRESFR
                 T00170017 =
2018-12-15 02:27 METAR KBFD 150727Z AUTO 13003KT 3SM BR CLR 02/02 A3013 RMK AO2 T00220017 =
2018-12-15 02:17 METAR KBFD 150717Z AUTO 14003KT 2 1/2SM BR CLR 01/01 A3014 RMK AO2 T00110011 =
2018-12-15 01:53 METAR KBFD 150653Z AUTO 14003KT 3SM BR CLR 02/02 A3013 RMK AO2 SLP215 T00220017
                 =
2018-12-15 00:53 METAR KBFD 150553Z AUTO 14004KT 4SM BR CLR 02/02 A3015 RMK AO2 SLP221 T00220017
                 10039 20017 58005 =
2018-12-15 00:51 METAR KBFD 150551Z AUTO 14004KT 3SM BR CLR 02/02 A3015 RMK AO2 =
2018-12-15 00:42 METAR KBFD 150542Z AUTO 00000KT 1 3/4SM BR FEW012 02/02 A3015 RMK AO2 T00220017
                 =
2018-12-15 00:32 METAR KBFD 150532Z AUTO 12004KT 5SM BR SCT012 SCT039 03/02 A3015 RMK AO2
                 T00280017 =
2018-12-15 00:20 METAR KBFD 150520Z AUTO 15003KT 5SM BR BKN013 BKN039 02/02 A3016 RMK AO2
                 T00220017 =
2018-12-14 23:53 METAR KBFD 150453Z AUTO 14003KT 7SM FEW011 OVC039 03/03 A3016 RMK AO2 SLP225
                 T00330028 400671011 =
2018-12-14 23:29 METAR KBFD 150429Z AUTO 00000KT 6SM BR SCT015 OVC039 03/02 A3016 RMK AO2
                 T00330022 =
2018-12-14 22:53 METAR KBFD 150353Z AUTO 14005KT 6SM BR OVC014 02/01 A3016 RMK AO2 SLP228
                 T00220011 =
2018-12-14 22:16 METAR KBFD 150316Z AUTO 00000KT 6SM BR BKN014 BKN027 02/02 A3017 RMK AO2
                 T00220017 =
2018-12-14 21:53 METAR KBFD 150253Z AUTO 00000KT 7SM BKN016 03/02 A3016 RMK AO2 SLP230 T00280022
                 58003 =
2018-12-14 21:05 METAR KBFD 150205Z AUTO 16003KT 8SM BKN018 03/02 A3018 RMK AO2 T00280017 =
2018-12-14 20:53 METAR KBFD 150153Z AUTO 00000KT 8SM FEW018 03/02 A3018 RMK AO2 SLP236 T00330022
                 =
2018-12-14 19:53 METAR KBFD 150053Z AUTO 14004KT 10SM BKN100 03/01 A3018 RMK AO2 SLP237 T00330011
                 =
2018-12-14 18:53 METAR KBFD 142353Z AUTO 14006KT 10SM FEW060 04/01 A3018 RMK AO2 SLP234 T00390006
                 10067 20028 58002 =
2018-12-14 17:53 METAR KBFD 142253Z AUTO 15005KT 10SM SCT065 BKN095 03/00 A3019 RMK AO2 SLP239
                 T00330000 =
2018-12-14 16:53 METAR KBFD 142153Z AUTO 15006KT 10SM CLR 04/01 A3018 RMK AO2 SLP235 T00440006 =
2018-12-14 15:53 METAR KBFD 142053Z AUTO 16006KT 10SM OVC032 06/01 A3018 RMK AO2 SLP235 T00560006
                 55005 =
2018-12-14 14:53 METAR KBFD 141953Z AUTO 17005KT 10SM BKN120 07/01 A3017 RMK AO2 SLP231 T00670006
                 =
2018-12-14 13:53 METAR KBFD 141853Z AUTO 16006KT 10SM OVC055 06/00 A3018 RMK AO2 SLP234 T00560000
                 =
2018-12-14 12:53 METAR KBFD 141753Z AUTO 16006KT 10SM FEW043 06/00 A3020 RMK AO2 SLP241 T00560000
                 10061 20006 56020 =
2018-12-14 11:53 METAR KBFD 141653Z AUTO 14008KT 9SM CLR 04/00 A3020 RMK AO2 SLP243 T00440000 =
2018-12-14 10:53 METAR KBFD 141553Z AUTO 15006KT 6SM HZ OVC060 03/M01 A3024 RMK AO2 SLP257
                 T00281006 =
2018-12-14 09:53 METAR KBFD 141453Z AUTO 15010KT 5SM BR FEW085 SCT110 02/M01 A3026 RMK AO2 SLP265
                 T00171006 53006 =

Support USWX by starting your Amazon purchase here.